Time;durP1;ratioP1;P1;durP2;ratioP2;P2;SDS_P1;SDS_P2;PMS_P1;PMS_P2;Temp;Humidity;BMP_temperature;BMP_pressure;BME280_temperature;BME280_humidity;BME280_pressure;Samples;Min_cycle;Max_cycle;Signal;HPM_P1;HPM_P2
2021/11/22 00:00:39;;;;;;;2.88;1.10;;;9.80;88.50;;;;;;5034206;28;20036;-74
2021/11/22 00:03:05;;;;;;;6.55;0.95;;;9.80;88.20;;;;;;5035551;28;20872;-74
2021/11/22 00:05:31;;;;;;;5.28;0.73;;;9.80;88.10;;;;;;5035272;28;20481;-74
2021/11/22 00:07:57;;;;;;;4.22;0.93;;;9.80;88.60;;;;;;5033945;28;20036;-74
2021/11/22 00:10:23;;;;;;;3.75;0.63;;;9.80;87.90;;;;;;5035489;28;20398;-74
2021/11/22 00:12:48;;;;;;;4.00;0.82;;;9.80;88.00;;;;;;5036041;28;20758;-74
2021/11/22 00:15:16;;;;;;;3.03;0.73;;;9.80;88.10;;;;;;5035929;28;20477;-74
2021/11/22 00:17:42;;;;;;;6.93;0.80;;;9.80;88.30;;;;;;5035559;28;20503;-74
2021/11/22 00:20:14;;;;;;;2.13;0.70;;;9.70;88.80;;;;;;5036187;28;20026;-74
2021/11/22 00:23:05;;;;;;;2.42;0.60;;;9.70;89.00;;;;;;5035710;28;20507;-74
2021/11/22 00:25:31;;;;;;;3.25;0.65;;;9.70;89.20;;;;;;5035107;28;20030;-74
2021/11/22 00:27:57;;;;;;;2.67;0.90;;;9.70;89.30;;;;;;5041426;28;20037;-75
2021/11/22 00:30:42;;;;;;;3.05;0.60;;;9.60;88.60;;;;;;5038167;28;20044;-74
2021/11/22 00:33:10;;;;;;;3.20;0.50;;;9.60;88.60;;;;;;5043613;28;20036;-74
2021/11/22 00:35:50;;;;;;;2.45;0.77;;;9.60;88.30;;;;;;5037697;28;20127;-74
2021/11/22 00:38:16;;;;;;;1.48;0.70;;;9.60;88.20;;;;;;5039924;28;20049;-74
2021/11/22 00:40:43;;;;;;;2.88;0.73;;;9.50;88.00;;;;;;5040525;28;20056;-74
2021/11/22 00:43:10;;;;;;;2.63;0.80;;;9.50;87.90;;;;;;5040287;28;20033;-74
2021/11/22 00:45:36;;;;;;;3.70;0.82;;;9.60;87.60;;;;;;5039672;28;20042;-74
2021/11/22 00:48:03;;;;;;;4.50;0.70;;;9.60;87.70;;;;;;5039872;28;20029;-74
2021/11/22 00:50:30;;;;;;;4.28;0.98;;;9.50;87.60;;;;;;5040478;28;20034;-74
2021/11/22 00:52:56;;;;;;;5.82;0.82;;;9.50;87.60;;;;;;5041673;28;20021;-75
2021/11/22 00:55:22;;;;;;;2.45;0.80;;;9.50;87.40;;;;;;5037090;28;20052;-74
2021/11/22 00:57:48;;;;;;;1.38;0.80;;;9.50;88.00;;;;;;5033676;28;20389;-75
2021/11/22 01:00:16;;;;;;;4.45;0.55;;;9.50;87.80;;;;;;5033211;28;20038;-75
2021/11/22 01:02:42;;;;;;;6.25;1.10;;;9.50;88.20;;;;;;5039814;28;20401;-75
2021/11/22 01:05:08;;;;;;;1.83;0.77;;;9.40;88.20;;;;;;5032966;28;20029;-75
2021/11/22 01:07:35;;;;;;;7.00;1.10;;;9.40;87.90;;;;;;5034258;28;21129;-74
2021/11/22 01:10:00;;;;;;;0.57;0.45;;;9.40;87.90;;;;;;5035078;28;20068;-74
2021/11/22 01:12:28;;;;;;;0.90;0.52;;;9.40;88.00;;;;;;5036748;28;20052;-74
2021/11/22 01:14:55;;;;;;;3.42;0.40;;;9.40;88.10;;;;;;5039732;28;20037;-74
2021/11/22 01:17:22;;;;;;;10.88;1.10;;;9.40;88.10;;;;;;5023000;28;20032;-74
2021/11/22 01:19:51;;;;;;;1.15;0.70;;;9.40;88.10;;;;;;5033048;28;20529;-74
2021/11/22 01:22:19;;;;;;;2.08;0.60;;;9.40;87.50;;;;;;5033232;28;20038;-74
2021/11/22 01:24:45;;;;;;;3.10;0.65;;;9.40;87.00;;;;;;5032296;28;20049;-75
2021/11/22 01:27:11;;;;;;;3.53;0.68;;;9.40;86.80;;;;;;5031407;28;20033;-74
2021/11/22 01:29:36;;;;;;;7.20;1.13;;;9.40;86.40;;;;;;5021766;28;20022;-74
2021/11/22 01:32:02;;;;;;;1.65;0.68;;;9.30;86.00;;;;;;5035004;28;20488;-75
2021/11/22 01:34:28;;;;;;;1.20;0.63;;;9.40;86.00;;;;;;5033763;28;20029;-75
2021/11/22 01:36:57;;;;;;;6.70;1.52;;;9.40;86.00;;;;;;5030771;28;20485;-74
2021/11/22 01:39:23;;;;;;;1.23;0.57;;;9.30;85.70;;;;;;5039597;28;20028;-74
2021/11/22 01:41:49;;;;;;;6.57;0.88;;;9.30;85.40;;;;;;5030999;28;20033;-75
2021/11/22 01:44:15;;;;;;;3.25;0.63;;;9.30;85.30;;;;;;5033606;28;20033;-75
2021/11/22 01:46:41;;;;;;;2.85;0.70;;;9.30;85.20;;;;;;5034952;28;20409;-75
2021/11/22 01:49:06;;;;;;;4.13;0.63;;;9.40;85.00;;;;;;5031679;28;20022;-75
2021/11/22 01:51:35;;;;;;;2.92;0.70;;;9.30;85.50;;;;;;5033873;28;20036;-75
2021/11/22 01:54:01;;;;;;;0.88;0.43;;;9.30;84.80;;;;;;5035618;28;20033;-75
2021/11/22 01:56:27;;;;;;;2.30;0.60;;;9.30;84.60;;;;;;5034648;28;20140;-74
2021/11/22 01:58:56;;;;;;;1.88;0.52;;;9.30;84.50;;;;;;5033189;28;20069;-75
2021/11/22 02:01:21;;;;;;;3.72;1.15;;;9.30;84.00;;;;;;5032996;28;20030;-75
2021/11/22 02:03:47;;;;;;;4.95;0.82;;;9.30;83.70;;;;;;5024308;28;20087;-75
2021/11/22 02:06:13;;;;;;;6.20;0.68;;;9.30;83.50;;;;;;5032965;28;20103;-75
2021/11/22 02:08:39;;;;;;;10.68;1.10;;;9.30;83.40;;;;;;5032004;28;20023;-74
2021/11/22 02:11:05;;;;;;;1.40;0.63;;;9.20;83.40;;;;;;5034838;28;20112;-75
2021/11/22 02:13:31;;;;;;;4.88;0.73;;;9.30;83.40;;;;;;5034525;28;20117;-74
2021/11/22 02:15:57;;;;;;;4.32;0.60;;;9.30;83.40;;;;;;5032864;28;20045;-75
2021/11/22 02:18:23;;;;;;;2.63;0.60;;;9.20;83.40;;;;;;5033236;28;20035;-74
2021/11/22 02:20:49;;;;;;;7.22;0.65;;;9.20;83.30;;;;;;5033486;28;20500;-74
2021/11/22 02:23:16;;;;;;;1.92;0.60;;;9.20;83.30;;;;;;5032268;28;20111;-75
2021/11/22 02:25:44;;;;;;;3.58;0.70;;;9.20;83.20;;;;;;5037974;28;20026;-74
2021/11/22 02:28:12;;;;;;;3.70;0.93;;;9.20;83.20;;;;;;5034237;28;20033;-74
2021/11/22 02:30:42;;;;;;;3.85;0.70;;;9.10;83.00;;;;;;5031437;28;20024;-75
2021/11/22 02:33:11;;;;;;;2.97;0.85;;;9.20;83.10;;;;;;5025387;28;20481;-75
2021/11/22 02:35:46;;;;;;;5.68;1.15;;;9.20;83.00;;;;;;5035678;28;20036;-75
2021/11/22 02:38:17;;;;;;;3.15;0.80;;;9.20;83.00;;;;;;5032138;28;20029;-75
2021/11/22 02:40:42;;;;;;;8.73;1.02;;;9.10;82.80;;;;;;5031594;28;20474;-75
2021/11/22 02:43:08;;;;;;;3.33;0.65;;;9.10;82.70;;;;;;5032162;28;20075;-75
2021/11/22 02:45:34;;;;;;;1.40;0.55;;;9.10;82.80;;;;;;5029948;28;20125;-75
2021/11/22 02:47:59;;;;;;;5.20;0.90;;;9.10;82.90;;;;;;5032264;28;20548;-74
2021/11/22 02:50:25;;;;;;;2.33;0.60;;;9.10;82.90;;;;;;5031670;28;20029;-75
2021/11/22 02:52:52;;;;;;;3.78;0.80;;;9.00;82.80;;;;;;5032606;28;20068;-75
2021/11/22 02:55:19;;;;;;;4.88;0.77;;;9.00;82.80;;;;;;5041568;28;20057;-75
2021/11/22 02:57:45;;;;;;;3.85;0.50;;;9.00;82.90;;;;;;5041663;28;20029;-74
2021/11/22 03:00:18;;;;;;;11.35;0.90;;;9.00;82.90;;;;;;5037471;28;20075;-75
2021/11/22 03:02:43;;;;;;;7.50;0.93;;;9.00;82.80;;;;;;5034918;28;20079;-74
2021/11/22 03:05:09;;;;;;;1.35;0.50;;;9.00;82.80;;;;;;5038894;28;20481;-74
2021/11/22 03:07:36;;;;;;;9.65;1.55;;;9.00;82.90;;;;;;5035495;28;20743;-74
2021/11/22 03:10:04;;;;;;;1.45;0.60;;;8.90;82.80;;;;;;5036991;28;20036;-74
2021/11/22 03:12:31;;;;;;;4.30;0.80;;;8.90;82.90;;;;;;5038514;28;20033;-75
2021/11/22 03:14:56;;;;;;;1.63;0.60;;;8.90;83.00;;;;;;5031396;28;20086;-74
2021/11/22 03:17:22;;;;;;;2.42;0.70;;;8.90;83.00;;;;;;5033189;28;20033;-74
2021/11/22 03:19:53;;;;;;;5.28;0.80;;;8.90;83.00;;;;;;5043022;28;20033;-74
2021/11/22 03:22:19;;;;;;;9.15;0.80;;;8.90;82.90;;;;;;5039650;28;20038;-74
2021/11/22 03:24:44;;;;;;;2.88;0.60;;;8.80;82.90;;;;;;5040519;28;20120;-75
2021/11/22 03:27:10;;;;;;;1.45;0.60;;;8.80;82.70;;;;;;5040907;28;20048;-75
2021/11/22 03:29:36;;;;;;;3.72;1.10;;;8.80;82.70;;;;;;5036464;28;20048;-74
2021/11/22 03:32:02;;;;;;;2.42;1.02;;;8.80;82.60;;;;;;5033479;28;20021;-74
2021/11/22 03:34:29;;;;;;;0.85;0.68;;;8.80;82.60;;;;;;5036894;28;20398;-81
2021/11/22 03:37:01;;;;;;;3.92;0.90;;;8.80;82.50;;;;;;5041747;28;20076;-75
2021/11/22 03:39:32;;;;;;;7.20;0.98;;;8.80;82.50;;;;;;5040752;28;20026;-74
2021/11/22 03:42:00;;;;;;;2.53;0.93;;;8.80;82.50;;;;;;5043672;28;20041;-74
2021/11/22 03:44:26;;;;;;;0.70;0.55;;;8.80;82.50;;;;;;5037441;28;20022;-74
2021/11/22 03:46:53;;;;;;;1.17;0.68;;;8.80;82.40;;;;;;5044251;28;20029;-74
2021/11/22 03:49:19;;;;;;;5.93;0.90;;;8.70;82.20;;;;;;5034285;28;20167;-74
2021/11/22 03:51:45;;;;;;;2.17;0.70;;;8.80;82.20;;;;;;5042898;28;20396;-74
2021/11/22 03:54:12;;;;;;;0.40;0.30;;;8.80;82.20;;;;;;5038708;28;20033;-74
2021/11/22 03:56:38;;;;;;;2.72;0.50;;;8.80;82.10;;;;;;5041868;28;20044;-74
2021/11/22 03:59:06;;;;;;;2.80;0.60;;;8.80;81.90;;;;;;5043110;28;20031;-74
2021/11/22 04:01:32;;;;;;;1.67;0.60;;;8.70;81.70;;;;;;5037303;28;20117;-75
2021/11/22 04:03:57;;;;;;;3.63;0.98;;;8.70;81.60;;;;;;5033860;28;20053;-74
2021/11/22 04:06:23;;;;;;;1.77;0.70;;;8.70;81.50;;;;;;5034359;28;20041;-74
2021/11/22 04:08:49;;;;;;;3.00;0.55;;;8.70;81.50;;;;;;5034648;28;20028;-75
2021/11/22 04:11:15;;;;;;;5.05;0.60;;;8.70;81.60;;;;;;5037933;28;20029;-74
2021/11/22 04:13:44;;;;;;;2.75;0.82;;;8.70;81.60;;;;;;5034652;28;20025;-74
2021/11/22 04:16:10;;;;;;;1.92;1.02;;;8.60;81.70;;;;;;5035157;28;20045;-75
2021/11/22 04:18:36;;;;;;;6.22;1.02;;;8.60;81.70;;;;;;5034209;28;20041;-75
2021/11/22 04:21:02;;;;;;;4.28;1.17;;;8.70;81.70;;;;;;5036944;28;20099;-74
2021/11/22 04:23:29;;;;;;;5.78;0.68;;;8.60;81.70;;;;;;5035104;28;20025;-75
2021/11/22 04:25:54;;;;;;;1.48;0.68;;;8.60;81.80;;;;;;5036623;28;20448;-75
2021/11/22 04:28:20;;;;;;;4.63;1.20;;;8.60;81.70;;;;;;5037167;28;20055;-75
2021/11/22 04:30:46;;;;;;;1.55;0.50;;;8.60;81.80;;;;;;5034881;28;20041;-75
2021/11/22 04:33:12;;;;;;;4.47;0.93;;;8.60;81.60;;;;;;5034399;28;20056;-75
2021/11/22 04:35:38;;;;;;;6.07;0.85;;;8.60;81.50;;;;;;5031555;28;20064;-75
2021/11/22 04:38:04;;;;;;;4.18;0.80;;;8.50;81.30;;;;;;5035561;28;20042;-75
2021/11/22 04:40:30;;;;;;;7.97;0.90;;;8.60;81.30;;;;;;5035994;28;20036;-75
2021/11/22 04:42:56;;;;;;;3.72;0.88;;;8.60;81.30;;;;;;5029256;28;20029;-74
2021/11/22 04:45:25;;;;;;;2.83;0.70;;;8.50;81.20;;;;;;5031344;28;20072;-75
2021/11/22 04:47:52;;;;;;;0.93;0.73;;;8.50;81.40;;;;;;5036620;28;20042;-75
2021/11/22 04:50:19;;;;;;;4.80;1.02;;;8.50;81.40;;;;;;5035100;28;20041;-75
2021/11/22 04:52:48;;;;;;;1.88;0.60;;;8.50;81.30;;;;;;5031434;28;20033;-75
2021/11/22 04:55:14;;;;;;;1.10;0.63;;;8.50;81.20;;;;;;5033914;28;20387;-74
2021/11/22 04:57:41;;;;;;;3.33;0.60;;;8.50;81.20;;;;;;5034613;28;20486;-74
2021/11/22 05:00:09;;;;;;;5.22;0.88;;;8.40;81.10;;;;;;5032872;28;20112;-74
2021/11/22 05:02:34;;;;;;;1.38;0.70;;;8.40;81.00;;;;;;5032784;28;20033;-75
2021/11/22 05:05:00;;;;;;;2.95;0.75;;;8.40;81.00;;;;;;5033744;28;20047;-74
2021/11/22 05:07:26;;;;;;;0.65;0.57;;;8.40;80.90;;;;;;5033718;28;20041;-74
2021/11/22 05:09:51;;;;;;;5.57;1.02;;;8.40;80.90;;;;;;5034287;28;20062;-74
2021/11/22 05:12:17;;;;;;;1.17;0.60;;;8.40;80.80;;;;;;5032281;28;20029;-74
2021/11/22 05:14:44;;;;;;;3.20;0.70;;;8.30;80.60;;;;;;5032221;28;20037;-74
2021/11/22 05:17:10;;;;;;;2.40;0.50;;;8.30;80.50;;;;;;5034447;28;20048;-75
2021/11/22 05:19:36;;;;;;;1.10;0.65;;;8.30;80.50;;;;;;5034692;28;20856;-75
2021/11/22 05:22:02;;;;;;;3.63;0.95;;;8.30;80.40;;;;;;5033223;28;20041;-74
2021/11/22 05:24:29;;;;;;;5.78;0.85;;;8.30;80.40;;;;;;5035941;28;20021;-74
2021/11/22 05:26:59;;;;;;;2.60;0.68;;;8.30;80.40;;;;;;5032628;28;20370;-75
2021/11/22 05:29:24;;;;;;;5.65;0.77;;;8.20;80.30;;;;;;5033443;28;20026;-75
2021/11/22 05:31:50;;;;;;;6.32;0.70;;;8.20;80.30;;;;;;5036351;28;20068;-75
2021/11/22 05:34:18;;;;;;;1.05;0.55;;;8.20;80.30;;;;;;5031930;28;20029;-74
2021/11/22 05:36:45;;;;;;;5.30;0.80;;;8.20;80.30;;;;;;5036847;28;20448;-75
2021/11/22 05:39:11;;;;;;;4.43;0.80;;;8.20;80.30;;;;;;5037092;28;20583;-75
2021/11/22 05:41:37;;;;;;;2.25;0.60;;;8.10;80.30;;;;;;5032088;28;20033;-75
2021/11/22 05:44:03;;;;;;;1.42;0.70;;;8.10;80.30;;;;;;5039794;28;20028;-75
2021/11/22 05:46:29;;;;;;;0.63;0.40;;;8.10;80.30;;;;;;5035267;28;20075;-75
2021/11/22 05:48:55;;;;;;;0.65;0.63;;;8.10;80.30;;;;;;5033060;28;20037;-74
2021/11/22 05:51:21;;;;;;;7.85;0.80;;;8.10;80.40;;;;;;5033189;28;20090;-75
2021/11/22 05:53:49;;;;;;;7.28;0.88;;;8.10;80.20;;;;;;5032207;28;20030;-74
2021/11/22 05:56:17;;;;;;;0.60;0.50;;;8.10;80.20;;;;;;5030874;28;20049;-75
2021/11/22 05:58:43;;;;;;;0.65;0.60;;;8.10;80.20;;;;;;5035121;28;20029;-74
2021/11/22 06:01:09;;;;;;;4.20;0.80;;;8.00;80.10;;;;;;5034605;28;20090;-75
2021/11/22 06:03:35;;;;;;;1.70;0.60;;;8.00;80.10;;;;;;5023199;28;20033;-75
2021/11/22 06:06:01;;;;;;;1.45;0.50;;;8.00;80.10;;;;;;5033667;28;20196;-74
2021/11/22 06:08:27;;;;;;;0.85;0.65;;;8.00;80.10;;;;;;5032913;28;20084;-75
2021/11/22 06:10:53;;;;;;;2.83;0.45;;;7.90;80.10;;;;;;5031715;28;20036;-74
2021/11/22 06:13:20;;;;;;;2.90;0.70;;;7.90;80.10;;;;;;5036071;28;20033;-78
2021/11/22 06:15:46;;;;;;;1.63;0.52;;;7.90;80.10;;;;;;5042307;28;20159;-78
2021/11/22 06:18:13;;;;;;;3.05;1.02;;;7.90;80.10;;;;;;5032487;28;20433;-78
2021/11/22 06:21:59;;;;;;;1.23;0.60;;;7.90;79.90;;;;;;5101376;27;20168;-74
2021/11/22 06:24:24;;;;;;;1.10;0.77;;;7.90;80.20;;;;;;5085536;28;20107;-73
2021/11/22 06:26:53;;;;;;;1.77;0.65;;;7.90;80.40;;;;;;5086358;28;20452;-72
2021/11/22 06:29:19;;;;;;;0.93;0.80;;;7.90;80.60;;;;;;5086614;28;20119;-74
2021/11/22 06:31:45;;;;;;;1.45;0.77;;;7.80;80.60;;;;;;5085833;28;20111;-73
2021/11/22 06:34:11;;;;;;;3.60;0.65;;;7.80;80.80;;;;;;5083953;28;20032;-73
2021/11/22 06:36:36;;;;;;;0.98;0.60;;;7.80;80.90;;;;;;5086395;28;20379;-73
2021/11/22 06:39:03;;;;;;;3.22;0.90;;;7.80;81.00;;;;;;5084646;28;20077;-73
2021/11/22 06:41:31;;;;;;;1.98;0.75;;;7.80;81.10;;;;;;5083846;28;20090;-75
2021/11/22 06:43:57;;;;;;;4.25;0.95;;;7.80;81.20;;;;;;5085297;28;20031;-74
2021/11/22 06:46:23;;;;;;;1.13;0.55;;;7.80;81.40;;;;;;5088250;28;20032;-73
2021/11/22 06:48:48;;;;;;;2.00;0.60;;;7.80;81.40;;;;;;5087595;28;20111;-75
2021/11/22 06:51:14;;;;;;;3.22;0.80;;;7.80;81.40;;;;;;5085109;28;20032;-75
2021/11/22 06:53:40;;;;;;;1.92;0.68;;;7.80;81.50;;;;;;5085602;28;20024;-76
2021/11/22 06:56:05;;;;;;;1.08;0.77;;;7.70;81.40;;;;;;5084927;28;20111;-75
2021/11/22 06:58:31;;;;;;;0.95;0.68;;;7.70;81.40;;;;;;5086602;28;20459;-77
2021/11/22 07:00:57;;;;;;;0.63;0.63;;;7.70;82.00;;;;;;5085779;28;20046;-68
2021/11/22 07:03:25;;;;;;;2.17;0.85;;;7.70;81.30;;;;;;5086767;28;20119;-73
2021/11/22 07:05:51;;;;;;;1.23;1.23;;;7.70;81.30;;;;;;5084581;28;20315;-74
2021/11/22 07:08:16;;;;;;;1.52;0.77;;;7.70;81.20;;;;;;5083158;28;20037;-73
2021/11/22 07:10:42;;;;;;;7.00;0.80;;;7.70;81.40;;;;;;5085969;28;20028;-73
2021/11/22 07:13:08;;;;;;;2.80;0.73;;;7.70;81.60;;;;;;5084641;28;20036;-75
2021/11/22 07:15:36;;;;;;;2.72;0.70;;;7.70;81.60;;;;;;5084316;28;20099;-74
2021/11/22 07:18:03;;;;;;;9.85;1.40;;;7.60;81.70;;;;;;5084169;28;20555;-77
2021/11/22 07:20:29;;;;;;;1.00;0.90;;;7.60;81.70;;;;;;5093563;28;20051;-69
2021/11/22 07:22:55;;;;;;;1.33;1.10;;;7.60;81.80;;;;;;5104385;28;20035;-74
2021/11/22 07:25:20;;;;;;;3.58;1.20;;;7.50;81.80;;;;;;5102443;28;20089;-74
2021/11/22 07:27:47;;;;;;;4.53;1.10;;;7.60;81.80;;;;;;5105193;28;20050;-74
2021/11/22 07:30:19;;;;;;;2.42;0.70;;;7.50;81.80;;;;;;5100940;28;20024;-75
2021/11/22 07:32:45;;;;;;;1.80;1.10;;;7.50;81.80;;;;;;5095266;28;20024;-75
2021/11/22 07:35:11;;;;;;;4.65;1.20;;;7.50;81.80;;;;;;5089340;28;20046;-75
2021/11/22 07:37:36;;;;;;;1.85;1.05;;;7.50;81.80;;;;;;5092410;28;20029;-75
2021/11/22 07:40:03;;;;;;;7.25;1.17;;;7.50;81.80;;;;;;5091548;28;20028;-75
2021/11/22 07:42:30;;;;;;;1.92;0.75;;;7.50;81.80;;;;;;5089951;28;20040;-75
2021/11/22 07:44:56;;;;;;;1.45;0.80;;;7.50;81.80;;;;;;5091113;28;20089;-75
2021/11/22 07:47:22;;;;;;;0.95;0.82;;;7.50;81.70;;;;;;5088980;28;20054;-75
2021/11/22 07:49:48;;;;;;;3.58;1.40;;;7.50;81.70;;;;;;5088717;28;20476;-75
2021/11/22 07:52:13;;;;;;;4.00;0.98;;;7.50;81.70;;;;;;5090047;28;20031;-75
2021/11/22 07:54:40;;;;;;;1.55;1.08;;;7.50;81.80;;;;;;5088961;28;20028;-75
2021/11/22 07:57:06;;;;;;;6.20;1.23;;;7.50;81.80;;;;;;5092340;28;20044;-75
2021/11/22 07:59:32;;;;;;;3.08;1.08;;;7.50;81.90;;;;;;5087701;28;20384;-75
2021/11/22 08:02:00;;;;;;;6.03;1.10;;;7.50;81.80;;;;;;5090508;28;20044;-75
2021/11/22 08:04:25;;;;;;;5.47;1.00;;;7.50;81.90;;;;;;5092052;28;20065;-75
2021/11/22 08:06:59;;;;;;;3.35;1.02;;;7.50;82.00;;;;;;5090216;28;20031;-73
2021/11/22 08:09:29;;;;;;;5.20;1.80;;;7.50;82.10;;;;;;5090156;28;20430;-74
2021/11/22 08:12:25;;;;;;;4.65;1.25;;;7.50;82.20;;;;;;5089419;28;20032;-76
2021/11/22 08:14:50;;;;;;;3.10;0.70;;;7.50;82.30;;;;;;5092412;28;20314;-73
2021/11/22 08:17:16;;;;;;;3.45;0.98;;;7.50;82.50;;;;;;5089877;28;20134;-73
2021/11/22 08:19:42;;;;;;;6.15;1.23;;;7.50;82.70;;;;;;5089795;28;20020;-74
2021/11/22 08:22:09;;;;;;;3.88;1.10;;;7.50;82.90;;;;;;5088774;28;20106;-72
2021/11/22 08:24:36;;;;;;;4.75;1.45;;;7.50;83.00;;;;;;5087580;28;20536;-71
2021/11/22 08:27:02;;;;;;;3.40;1.20;;;7.50;83.10;;;;;;5088306;28;20484;-71
2021/11/22 08:29:29;;;;;;;0.95;0.90;;;7.60;83.20;;;;;;5092099;28;20059;-75
2021/11/22 08:31:54;;;;;;;3.83;1.45;;;7.60;83.40;;;;;;5090592;28;20035;-75
2021/11/22 08:34:21;;;;;;;5.03;1.50;;;7.60;83.50;;;;;;5082543;28;20033;-75
2021/11/22 08:36:47;;;;;;;4.68;1.23;;;7.50;83.60;;;;;;5085506;28;20031;-74
2021/11/22 08:39:13;;;;;;;4.05;1.30;;;7.60;83.80;;;;;;5081979;28;20040;-74
2021/11/22 08:41:38;;;;;;;3.60;1.15;;;7.60;84.00;;;;;;5091737;28;20036;-74
2021/11/22 08:44:04;;;;;;;8.50;2.17;;;7.60;84.10;;;;;;5089865;28;20027;-75
2021/11/22 08:46:35;;;;;;;2.33;1.20;;;7.70;84.20;;;;;;5091283;28;20153;-75
2021/11/22 08:49:01;;;;;;;4.55;1.27;;;7.60;84.20;;;;;;5089729;28;20035;-75
2021/11/22 08:51:26;;;;;;;2.90;1.27;;;7.60;84.50;;;;;;5091564;28;20061;-75
2021/11/22 08:53:52;;;;;;;7.57;1.58;;;7.70;84.70;;;;;;5090159;28;20024;-75
2021/11/22 08:56:18;;;;;;;6.28;1.85;;;7.70;84.80;;;;;;5086822;28;20529;-75
2021/11/22 08:58:44;;;;;;;2.63;1.40;;;7.70;84.90;;;;;;5075582;28;20123;-76
2021/11/22 09:01:09;;;;;;;4.15;1.50;;;7.70;85.10;;;;;;5089357;28;20051;-75
2021/11/22 09:03:35;;;;;;;10.90;1.40;;;7.80;85.30;;;;;;5082668;28;20036;-75
2021/11/22 09:06:01;;;;;;;3.55;1.67;;;7.70;85.30;;;;;;5074338;28;20504;-75
2021/11/22 09:08:27;;;;;;;3.30;1.35;;;7.80;85.40;;;;;;5093264;28;20145;-75
2021/11/22 09:10:53;;;;;;;1.40;1.30;;;7.80;85.60;;;;;;5090354;28;20126;-75
2021/11/22 09:13:19;;;;;;;5.20;1.65;;;7.80;85.80;;;;;;5090308;28;20703;-75
2021/11/22 09:15:44;;;;;;;5.80;1.50;;;7.80;85.80;;;;;;5091681;28;20032;-75
2021/11/22 09:18:10;;;;;;;3.72;1.40;;;7.80;85.60;;;;;;5090190;28;20103;-75
2021/11/22 09:20:36;;;;;;;4.25;1.33;;;7.80;85.60;;;;;;5092242;28;20105;-75
2021/11/22 09:23:04;;;;;;;1.63;1.30;;;7.80;85.80;;;;;;5090777;28;20071;-75
2021/11/22 09:25:29;;;;;;;4.20;1.23;;;7.80;85.90;;;;;;5089814;28;20494;-75
2021/11/22 09:27:57;;;;;;;6.65;1.30;;;7.80;86.00;;;;;;5092061;28;20028;-75
2021/11/22 09:30:23;;;;;;;2.00;1.20;;;7.80;86.20;;;;;;5086753;28;20044;-75
2021/11/22 09:32:49;;;;;;;1.63;1.17;;;7.80;86.20;;;;;;5083903;28;20131;-75
2021/11/22 09:35:15;;;;;;;4.55;1.40;;;7.80;86.50;;;;;;5085600;28;20039;-75
2021/11/22 09:37:40;;;;;;;4.38;1.45;;;7.80;86.70;;;;;;5073145;28;20026;-76
2021/11/22 09:40:08;;;;;;;5.47;1.67;;;7.80;86.90;;;;;;5085538;28;20463;-76
2021/11/22 09:42:34;;;;;;;13.05;1.80;;;7.80;87.00;;;;;;5091398;28;20032;-76
2021/11/22 09:45:01;;;;;;;5.22;1.73;;;7.80;87.00;;;;;;5094866;28;20038;-76
2021/11/22 09:47:27;;;;;;;3.38;1.65;;;7.80;87.20;;;;;;5088504;28;20108;-76
2021/11/22 09:49:54;;;;;;;6.38;1.40;;;7.80;87.30;;;;;;5081734;28;20024;-76
2021/11/22 09:52:25;;;;;;;1.70;1.30;;;7.80;87.40;;;;;;5091390;28;20127;-76
2021/11/22 09:54:51;;;;;;;6.63;0.80;;;7.90;87.60;;;;;;5091474;28;20020;-77
2021/11/22 09:57:18;;;;;;;9.30;1.27;;;7.90;87.40;;;;;;5078606;28;20484;-74
2021/11/22 09:59:44;;;;;;;1.92;1.00;;;7.90;87.20;;;;;;5088507;28;20032;-79
2021/11/22 10:02:10;;;;;;;5.45;1.10;;;7.80;87.20;;;;;;5091247;28;20035;-75
2021/11/22 10:04:36;;;;;;;5.90;1.20;;;7.80;87.30;;;;;;5086556;28;20031;-75
2021/11/22 10:07:04;;;;;;;2.47;0.70;;;7.80;87.50;;;;;;5085425;28;20065;-75
2021/11/22 10:09:30;;;;;;;5.03;1.20;;;7.80;87.60;;;;;;5090157;28;20394;-75
2021/11/22 10:11:59;;;;;;;2.60;0.93;;;7.90;87.70;;;;;;5090984;28;20036;-75
2021/11/22 10:14:26;;;;;;;2.78;0.70;;;7.90;87.80;;;;;;5080861;28;20029;-75
2021/11/22 10:16:52;;;;;;;0.60;0.60;;;7.90;87.80;;;;;;5080696;28;20032;-75
2021/11/22 10:19:20;;;;;;;3.95;0.80;;;8.00;87.90;;;;;;5089654;28;20028;-75
2021/11/22 10:21:46;;;;;;;4.28;0.52;;;8.00;87.90;;;;;;5078869;28;20496;-75
2021/11/22 10:24:13;;;;;;;1.85;0.65;;;8.00;87.80;;;;;;5083799;28;20070;-75
2021/11/22 10:26:41;;;;;;;0.93;0.73;;;8.00;87.90;;;;;;5079258;28;20475;-75
2021/11/22 10:29:09;;;;;;;1.25;0.70;;;8.10;88.00;;;;;;5084801;28;20056;-75
2021/11/22 10:31:37;;;;;;;1.63;0.75;;;8.10;88.00;;;;;;5076945;28;20071;-75
2021/11/22 10:34:04;;;;;;;7.70;0.82;;;8.10;88.00;;;;;;5077801;28;20440;-75
2021/11/22 10:36:36;;;;;;;2.65;0.65;;;8.10;88.00;;;;;;5075029;28;20032;-75
2021/11/22 10:39:04;;;;;;;2.63;0.70;;;8.10;88.00;;;;;;5077454;28;20177;-75
2021/11/22 10:41:36;;;;;;;1.13;0.75;;;8.20;88.10;;;;;;5082751;28;20052;-75
2021/11/22 10:44:09;;;;;;;3.38;0.63;;;8.30;88.20;;;;;;5080375;28;20032;-74
2021/11/22 10:46:44;;;;;;;4.07;0.93;;;8.30;88.40;;;;;;5082627;28;20063;-74
2021/11/22 10:49:14;;;;;;;3.72;1.35;;;8.30;88.20;;;;;;5087889;28;20031;-75
2021/11/22 10:51:47;;;;;;;3.10;0.68;;;8.40;88.30;;;;;;5082075;28;20031;-75
2021/11/22 10:54:15;;;;;;;1.05;0.95;;;8.40;88.30;;;;;;5082096;28;20089;-75
2021/11/22 10:56:47;;;;;;;0.63;0.60;;;8.40;88.40;;;;;;5087071;28;20063;-75
2021/11/22 10:59:16;;;;;;;0.90;0.63;;;8.40;88.60;;;;;;5087763;28;20131;-76
2021/11/22 11:01:55;;;;;;;0.60;0.60;;;8.40;88.80;;;;;;5090436;28;20040;-75
2021/11/22 11:04:24;;;;;;;0.47;0.47;;;8.50;88.90;;;;;;5083805;28;20024;-77
2021/11/22 11:06:50;;;;;;;1.90;0.60;;;8.40;89.10;;;;;;5089076;28;20086;-74
2021/11/22 11:09:28;;;;;;;0.35;0.20;;;8.50;89.30;;;;;;5095630;28;20032;-76
2021/11/22 11:12:05;;;;;;;1.55;0.40;;;8.50;89.50;;;;;;5084805;28;20028;-76
2021/11/22 11:14:32;;;;;;;1.10;0.47;;;8.50;89.80;;;;;;5094967;28;20484;-76
2021/11/22 11:17:26;;;;;;;0.63;0.40;;;8.50;90.00;;;;;;5081981;28;20417;-76
2021/11/22 11:19:55;;;;;;;0.65;0.40;;;8.50;90.10;;;;;;5091070;28;20044;-76
2021/11/22 11:22:22;;;;;;;0.40;0.40;;;8.50;90.10;;;;;;5094529;28;20044;-76
2021/11/22 11:24:49;;;;;;;0.57;0.52;;;8.50;90.40;;;;;;5085164;28;20036;-76
2021/11/22 11:27:15;;;;;;;0.80;0.40;;;8.60;90.50;;;;;;5089474;28;20029;-76
2021/11/22 11:29:45;;;;;;;0.35;0.35;;;8.60;90.60;;;;;;5087563;28;20024;-76
2021/11/22 11:32:11;;;;;;;0.22;0.22;;;8.60;90.70;;;;;;5078646;28;20185;-76
2021/11/22 11:34:43;;;;;;;0.20;0.20;;;8.60;90.90;;;;;;5094762;28;20527;-76
2021/11/22 11:37:40;;;;;;;2.05;0.65;;;8.70;91.00;;;;;;5093435;28;20035;-75
2021/11/22 11:40:24;;;;;;;0.47;0.47;;;8.70;91.30;;;;;;5093753;28;20536;-76
2021/11/22 11:43:13;;;;;;;0.20;0.20;;;8.70;91.40;;;;;;5093249;28;20506;-76
2021/11/22 11:46:09;;;;;;;0.20;0.20;;;8.70;91.60;;;;;;5093665;28;20027;-77
2021/11/22 11:48:57;;;;;;;19.95;0.60;;;8.80;91.80;;;;;;5093673;28;20479;-75
2021/11/22 11:51:38;;;;;;;2.35;0.73;;;8.80;91.90;;;;;;5092922;28;20020;-77
2021/11/22 11:54:12;;;;;;;0.75;0.60;;;8.80;92.10;;;;;;5092193;28;20028;-78
2021/11/22 11:56:51;;;;;;;0.30;0.30;;;8.90;92.20;;;;;;5093302;28;20028;-76
2021/11/22 11:59:20;;;;;;;1.02;0.45;;;8.90;92.30;;;;;;5091286;28;20036;-77
2021/11/22 12:02:13;;;;;;;0.50;0.50;;;9.00;92.50;;;;;;5090768;28;20039;-79
2021/11/22 12:04:47;;;;;;;0.68;0.45;;;9.00;92.70;;;;;;5093394;28;20399;-78
2021/11/22 12:07:32;;;;;;;1.38;0.73;;;9.10;92.80;;;;;;5090108;28;20028;-79
2021/11/22 12:10:06;;;;;;;0.55;0.32;;;9.10;92.90;;;;;;5091185;28;20058;-77
2021/11/22 12:12:33;;;;;;;;;;;9.20;92.90;;;;;;5093285;28;20036;-80
2021/11/22 12:15:12;;;;;;;0.30;0.30;;;9.20;93.00;;;;;;5090441;28;19908;-75
2021/11/22 12:17:39;;;;;;;1.00;0.70;;;9.30;93.00;;;;;;5093641;28;20036;-78
2021/11/22 12:20:38;;;;;;;2.47;0.40;;;9.30;93.10;;;;;;5086133;28;20474;-76
2021/11/22 12:23:07;;;;;;;0.63;0.22;;;9.40;93.20;;;;;;5089036;28;20038;-75
2021/11/22 12:25:39;;;;;;;0.32;0.32;;;9.50;93.20;;;;;;5094275;28;20035;-82
2021/11/22 12:28:23;;;;;;;0.95;0.60;;;9.50;93.20;;;;;;5090535;28;20020;-80
2021/11/22 12:30:54;;;;;;;5.20;0.80;;;9.60;93.30;;;;;;5091222;28;20036;-79
2021/11/22 12:33:20;;;;;;;2.40;0.90;;;9.70;93.20;;;;;;5093010;28;20035;-79
2021/11/22 12:35:48;;;;;;;2.90;0.50;;;9.70;93.20;;;;;;5092504;28;20016;-78
2021/11/22 12:38:22;;;;;;;2.08;0.75;;;9.80;93.10;;;;;;5090795;28;20034;-78
2021/11/22 12:40:49;;;;;;;2.90;0.35;;;9.90;92.80;;;;;;5091002;28;20075;-79
2021/11/22 12:43:15;;;;;;;2.03;0.45;;;10.00;92.80;;;;;;5091534;28;20081;-78
2021/11/22 12:45:57;;;;;;;8.73;1.17;;;10.10;93.00;;;;;;5089246;28;20510;-79
2021/11/22 12:48:30;;;;;;;2.40;0.68;;;10.20;92.70;;;;;;5089327;28;20028;-78
2021/11/22 12:50:58;;;;;;;8.15;0.82;;;10.30;92.60;;;;;;5088131;28;20036;-80
2021/11/22 12:53:24;;;;;;;3.63;0.85;;;10.30;92.40;;;;;;5088255;28;20383;-80
2021/11/22 12:55:50;;;;;;;1.90;0.63;;;10.50;92.30;;;;;;5089388;28;20028;-80
2021/11/22 12:58:23;;;;;;;2.25;1.08;;;10.50;91.90;;;;;;5089647;28;20353;-80
2021/11/22 13:00:49;;;;;;;5.75;1.20;;;10.70;91.50;;;;;;5090993;28;20040;-74
2021/11/22 13:03:16;;;;;;;1.27;0.73;;;10.70;91.20;;;;;;5088481;28;20020;-76